Varva — A8UP7 — position and weather

sailwx.info

Track history (hours):
 
Tides and Currents Weather Stations Pressure Air Temp Water Temp Dewpoint Dewpoint Depression Visibility Wind Speed Wind Dir Waves Ship Positions

Varva

Last reported at 2015-Mar-30 02:08 UTC. Time now 2015-Mar-31 02:04 UTC.
Position N 44°44' E 037°47'.

Length 224 m; draft 7.3 m.

Type: Cargo ship. MMSI: 636014536.

Date/timePositionNaut miles runAvg speedWind from/ knotsBaromVisibWave heightAir tempDewpointWater temp
2015-Mar-30 02:08N 44°44' E 037°47'0 0.0
2015-Mar-29 23:09N 44°44' E 037°47'0 0.0
2015-Mar-29 20:29N 44°44' E 037°47'0 0.0
2015-Mar-29 19:11N 44°44' E 037°47'0 0.0
2015-Mar-29 18:14N 44°44' E 037°47'  
2015-Mar-22 21:33N 41°24' E 029°23'1010.5
2015-Mar-22 20:33N 41°18' E 029°12'19 8.7
2015-Mar-22 18:23N 41°02' E 029°00'6 6.6
2015-Mar-22 17:33N 40°56' E 028°60'6 6.4
2015-Mar-22 16:33N 40°50' E 028°58'1 0.6
2015-Mar-22 15:30N 40°49' E 028°58'4 4.1
2015-Mar-22 14:33N 40°45' E 028°58'1 1.4
2015-Mar-22 13:33N 40°47' E 028°58'1 1.3
2015-Mar-22 12:33N 40°48' E 028°58'1 1.0
2015-Mar-22 11:32N 40°49' E 028°58'6 5.7
2015-Mar-22 10:33N 40°44' E 028°58'2 1.6
2015-Mar-22 09:33N 40°45' E 028°57'1 1.3
2015-Mar-22 08:33N 40°46' E 028°57'1 0.9
2015-Mar-22 07:33N 40°47' E 028°57'1 0.9
2015-Mar-22 06:33N 40°48' E 028°57'1 1.4
2015-Mar-22 05:33N 40°50' E 028°57'6 5.7
2015-Mar-22 04:34N 40°51' E 028°49'1110.5
2015-Mar-22 03:31N 40°49' E 028°35'229 8.2
2015-Mar-20 23:29N 37°39' E 025°52'9 9.5
2015-Mar-20 22:33N 37°30' E 025°55'70 9.4
2015-Mar-20 15:04N 36°35' E 026°50'  
Track history (hours):
 
Tides and Currents Weather Stations Pressure Air Temp Water Temp Dewpoint Dewpoint Depression Visibility Wind Speed Wind Dir Waves Ship Positions

Varva

Last reported at 2015-Mar-30 02:08 UTC. Time now 2015-Mar-31 02:04 UTC.
Position N 44°44' E 037°47'.

Length 224 m; draft 7.3 m.

Type: Cargo ship. MMSI: 636014536.

Date/timePositionNaut miles runAvg speedWind from/ knotsBaromVisibWave heightAir tempDewpointWater temp
2015-Mar-30 02:08N 44°44' E 037°47'0 0.0
2015-Mar-29 23:09N 44°44' E 037°47'0 0.0
2015-Mar-29 20:29N 44°44' E 037°47'0 0.0
2015-Mar-29 19:11N 44°44' E 037°47'0 0.0
2015-Mar-29 18:14N 44°44' E 037°47'  
2015-Mar-22 21:33N 41°24' E 029°23'1010.5
2015-Mar-22 20:33N 41°18' E 029°12'19 8.7
2015-Mar-22 18:23N 41°02' E 029°00'6 6.6
2015-Mar-22 17:33N 40°56' E 028°60'6 6.4
2015-Mar-22 16:33N 40°50' E 028°58'1 0.6
2015-Mar-22 15:30N 40°49' E 028°58'4 4.1
2015-Mar-22 14:33N 40°45' E 028°58'1 1.4
2015-Mar-22 13:33N 40°47' E 028°58'1 1.3
2015-Mar-22 12:33N 40°48' E 028°58'1 1.0
2015-Mar-22 11:32N 40°49' E 028°58'6 5.7
2015-Mar-22 10:33N 40°44' E 028°58'2 1.6
2015-Mar-22 09:33N 40°45' E 028°57'1 1.3
2015-Mar-22 08:33N 40°46' E 028°57'1 0.9
2015-Mar-22 07:33N 40°47' E 028°57'1 0.9
2015-Mar-22 06:33N 40°48' E 028°57'1 1.4
2015-Mar-22 05:33N 40°50' E 028°57'6 5.7
2015-Mar-22 04:34N 40°51' E 028°49'1110.5
2015-Mar-22 03:31N 40°49' E 028°35'229 8.2
2015-Mar-20 23:29N 37°39' E 025°52'9 9.5
2015-Mar-20 22:33N 37°30' E 025°55'70 9.4
2015-Mar-20 15:04N 36°35' E 026°50'  

Dump ship's entire track history